This is the latest recevied weather packets stored in our database for station/object KD6VLN-14. If no packets are shown the sender has not sent any weather packets the latest 1 day(s).
| Time | Temp. | Humidity | Pressure | Rain* | Wind** | Luminosity | Snow |
|---|---|---|---|---|---|---|---|
| 1778030648 | 22.78° C | 36% | - | 0 mm | 3.58 m/s, 257° | - | - |
| 1778030517 | 22.78° C | 36% | - | 0 mm | 4.47 m/s, 258° | - | - |
| 1778030348 | 22.78° C | 36% | - | 0 mm | 4.47 m/s, 258° | - | - |
| 1778030214 | 22.22° C | 36% | - | 0 mm | 4.47 m/s, 269° | - | - |
| 1778030048 | 22.22° C | 36% | - | 0 mm | 4.47 m/s, 269° | - | - |
| 1778029933 | 22.22° C | 36% | - | 0 mm | 4.47 m/s, 252° | - | - |
| 1778029748 | 22.22° C | 36% | - | 0 mm | 4.47 m/s, 252° | - | - |
| 1778029590 | 22.78° C | 36% | - | 0 mm | 4.92 m/s, 254° | - | - |
| 1778029448 | 22.78° C | 36% | - | 0 mm | 4.92 m/s, 254° | - | - |
| 1778029330 | 23.33° C | 36% | - | 0 mm | 5.36 m/s, 246° | - | - |
| 1778029148 | 23.33° C | 36% | - | 0 mm | 5.36 m/s, 246° | - | - |
| 1778029000 | 23.33° C | 36% | - | 0 mm | 4.92 m/s, 257° | - | - |
| 1778028848 | 23.33° C | 36% | - | 0 mm | 4.92 m/s, 257° | - | - |
| 1778028700 | 22.78° C | 36% | - | 0 mm | 3.58 m/s, 265° | - | - |
| 1778028548 | 22.78° C | 36% | - | 0 mm | 3.58 m/s, 265° | - | - |
| 1778028355 | 22.78° C | 36% | - | 0 mm | 4.02 m/s, 246° | - | - |
| 1778028248 | 22.78° C | 36% | - | 0 mm | 4.02 m/s, 246° | - | - |
| 1778028084 | 23.33° C | 37% | - | 0 mm | 4.02 m/s, 261° | - | - |
| 1778027948 | 23.33° C | 37% | - | 0 mm | 4.02 m/s, 261° | - | - |
| 1778027762 | 23.33° C | 36% | - | 0 mm | 4.47 m/s, 253° | - | - |
| 1778027648 | 23.33° C | 36% | - | 0 mm | 4.47 m/s, 253° | - | - |
| 1778027497 | 23.33° C | 36% | - | 0 mm | 4.92 m/s, 256° | - | - |
| 1778027348 | 23.33° C | 36% | - | 0 mm | 4.92 m/s, 256° | - | - |
| 1778027200 | 22.78° C | 36% | - | 0 mm | 2.68 m/s, 275° | - | - |
| 1778027049 | 22.78° C | 36% | - | 0 mm | 2.68 m/s, 275° | - | - |
* Rain latest hour (hover to see other rain measurements)
** Current wind speed in m/s (hover to see current wind gust speed)